Time;durP1;ratioP1;P1;durP2;ratioP2;P2;SDS_P1;SDS_P2;PMS_P1;PMS_P2;Temp;Humidity;BMP_temperature;BMP_pressure;BME280_temperature;BME280_humidity;BME280_pressure;Samples;Min_cycle;Max_cycle;Signal;HPM_P1;HPM_P2
2024/03/08 00:02:24;;;;;;;21.10;12.70;;;6.00;99.90;;;;;;5087674;28;20203;-71
2024/03/08 00:04:51;;;;;;;15.23;11.80;;;6.00;99.90;;;;;;5087943;28;20203;-71
2024/03/08 00:07:20;;;;;;;21.07;12.17;;;5.90;99.90;;;;;;5087581;28;20291;-71
2024/03/08 00:09:47;;;;;;;16.50;12.47;;;5.90;99.90;;;;;;5087266;28;20674;-71
2024/03/08 00:12:14;;;;;;;17.40;13.13;;;5.80;99.90;;;;;;5087478;28;20300;-72
2024/03/08 00:14:41;;;;;;;17.77;11.73;;;5.90;99.90;;;;;;5086991;28;20353;-71
2024/03/08 00:17:09;;;;;;;16.47;12.10;;;5.80;99.90;;;;;;5087368;28;20234;-71
2024/03/08 00:19:36;;;;;;;17.03;12.13;;;5.70;99.90;;;;;;5087243;28;20305;-72
2024/03/08 00:22:03;;;;;;;16.73;12.07;;;5.70;99.90;;;;;;5087112;28;20555;-72
2024/03/08 00:24:32;;;;;;;16.10;11.83;;;5.60;99.90;;;;;;5087236;28;20259;-72
2024/03/08 00:26:59;;;;;;;16.10;12.47;;;5.60;99.90;;;;;;5086983;28;20211;-72
2024/03/08 00:29:26;;;;;;;20.40;13.03;;;5.60;99.90;;;;;;5087961;28;20211;-71
2024/03/08 00:31:52;;;;;;;14.77;11.97;;;5.50;99.90;;;;;;5086980;28;20226;-71
2024/03/08 00:34:19;;;;;;;14.67;11.83;;;5.50;99.90;;;;;;5087053;28;20227;-71
2024/03/08 00:36:47;;;;;;;17.47;12.57;;;5.50;99.90;;;;;;5087311;28;20241;-70
2024/03/08 00:39:14;;;;;;;15.17;12.53;;;5.40;99.90;;;;;;5086945;28;20207;-71
2024/03/08 00:41:44;;;;;;;15.13;12.17;;;5.40;99.90;;;;;;5086015;28;20231;-70
2024/03/08 00:44:11;;;;;;;16.43;12.03;;;5.40;99.90;;;;;;5086966;28;20217;-71
2024/03/08 00:46:38;;;;;;;16.70;12.13;;;5.30;99.90;;;;;;5087126;28;20299;-70
2024/03/08 00:49:06;;;;;;;17.20;12.53;;;5.30;99.90;;;;;;5086891;28;20299;-70
2024/03/08 00:51:33;;;;;;;17.73;12.77;;;5.20;99.90;;;;;;5085998;28;20809;-70
2024/03/08 00:54:00;;;;;;;17.47;12.60;;;5.20;99.90;;;;;;5086742;28;20222;-71
2024/03/08 00:56:27;;;;;;;16.90;13.00;;;5.20;99.90;;;;;;5086470;28;20305;-70
2024/03/08 00:58:55;;;;;;;19.37;12.33;;;5.20;99.90;;;;;;5086781;28;20203;-71
2024/03/08 01:01:24;;;;;;;18.97;13.00;;;5.10;99.90;;;;;;5087049;28;20199;-71
2024/03/08 01:03:52;;;;;;;16.77;12.63;;;5.10;99.90;;;;;;5086635;28;20290;-71
2024/03/08 01:06:19;;;;;;;18.30;12.93;;;5.10;99.90;;;;;;5086657;28;20238;-70
2024/03/08 01:08:46;;;;;;;15.80;11.37;;;5.10;99.90;;;;;;5086601;28;20211;-71
2024/03/08 01:11:14;;;;;;;17.87;12.37;;;5.00;99.90;;;;;;5086878;28;20283;-71
2024/03/08 01:13:41;;;;;;;18.43;13.10;;;5.00;99.90;;;;;;5086572;28;20241;-71
2024/03/08 01:16:10;;;;;;;17.70;12.97;;;5.00;99.90;;;;;;5086620;28;20350;-70
2024/03/08 01:18:37;;;;;;;17.33;13.10;;;4.90;99.90;;;;;;5086436;28;20207;-71
2024/03/08 01:21:07;;;;;;;18.83;12.73;;;4.90;99.90;;;;;;5086000;28;20351;-71
2024/03/08 01:23:34;;;;;;;19.00;12.73;;;4.80;99.90;;;;;;5085885;28;20214;-71
2024/03/08 01:26:02;;;;;;;18.60;13.00;;;4.90;99.90;;;;;;5086103;28;20264;-71
2024/03/08 01:28:29;;;;;;;17.63;12.33;;;4.80;99.90;;;;;;5085923;28;20215;-71
2024/03/08 01:30:56;;;;;;;17.47;12.53;;;4.80;99.90;;;;;;5085926;28;20203;-71
2024/03/08 01:33:25;;;;;;;17.00;12.10;;;4.80;99.90;;;;;;5085856;28;20199;-71
2024/03/08 01:35:52;;;;;;;15.97;12.57;;;4.80;99.90;;;;;;5086121;28;20258;-70
2024/03/08 01:38:21;;;;;;;18.00;12.67;;;4.80;99.90;;;;;;5085921;28;20965;-71
2024/03/08 01:40:47;;;;;;;19.03;13.53;;;4.80;99.90;;;;;;5085327;28;20735;-71
2024/03/08 01:43:21;;;;;;;18.63;12.53;;;4.70;99.90;;;;;;5085753;28;20260;-72
2024/03/08 01:45:52;;;;;;;19.07;12.13;;;4.70;99.90;;;;;;5071163;28;20518;-71
2024/03/08 01:48:21;;;;;;;19.80;12.93;;;4.70;99.90;;;;;;5065170;28;20662;-72
2024/03/08 01:50:50;;;;;;;17.37;12.47;;;4.60;99.90;;;;;;5065352;28;20257;-71
2024/03/08 01:53:18;;;;;;;17.13;11.97;;;4.60;99.90;;;;;;5078685;28;20203;-71
2024/03/08 01:55:47;;;;;;;16.70;12.40;;;4.50;99.90;;;;;;5085534;28;20353;-71
2024/03/08 01:58:15;;;;;;;18.17;12.27;;;4.50;99.90;;;;;;5085324;28;20238;-71
2024/03/08 02:00:44;;;;;;;16.73;12.70;;;4.50;99.90;;;;;;5085625;28;20199;-71
2024/03/08 02:03:11;;;;;;;16.27;11.97;;;4.40;99.90;;;;;;5084919;28;20230;-72
2024/03/08 02:05:41;;;;;;;16.37;12.27;;;4.40;99.90;;;;;;5084726;28;20226;-72
2024/03/08 02:08:12;;;;;;;15.83;12.30;;;4.40;99.90;;;;;;5084596;28;20199;-72
2024/03/08 02:10:39;;;;;;;16.07;12.80;;;4.40;99.90;;;;;;5085002;28;20605;-71
2024/03/08 02:13:07;;;;;;;18.00;12.70;;;4.40;99.90;;;;;;5081895;28;20716;-72
2024/03/08 02:15:52;;;;;;;17.63;12.57;;;4.40;99.90;;;;;;5087160;28;20321;-72
2024/03/08 02:18:19;;;;;;;16.23;12.33;;;4.40;99.90;;;;;;5086920;28;20293;-72
2024/03/08 02:20:48;;;;;;;17.33;12.83;;;4.40;99.90;;;;;;5087542;28;20236;-72
2024/03/08 02:23:15;;;;;;;15.23;12.07;;;4.40;99.90;;;;;;5086922;28;20199;-72
2024/03/08 02:25:42;;;;;;;18.73;12.50;;;4.40;99.90;;;;;;5086932;28;20214;-75
2024/03/08 02:28:11;;;;;;;17.13;12.63;;;4.30;99.90;;;;;;5087368;28;20657;-73
2024/03/08 02:30:38;;;;;;;15.77;11.90;;;4.30;99.90;;;;;;5086784;28;20301;-73
2024/03/08 02:33:05;;;;;;;14.60;11.57;;;4.30;99.90;;;;;;5087177;28;20207;-72
2024/03/08 02:35:32;;;;;;;16.57;12.53;;;4.30;99.90;;;;;;5081461;28;20315;-72
2024/03/08 02:38:00;;;;;;;16.30;11.80;;;4.30;99.90;;;;;;5087476;28;20207;-74
2024/03/08 02:40:27;;;;;;;16.57;12.40;;;4.30;99.90;;;;;;5086536;28;20718;-71
2024/03/08 02:42:54;;;;;;;16.90;12.37;;;4.20;99.90;;;;;;5087284;28;20325;-71
2024/03/08 02:45:21;;;;;;;18.47;12.90;;;4.20;99.90;;;;;;5087414;28;20301;-71
2024/03/08 02:47:49;;;;;;;17.50;12.17;;;4.20;99.90;;;;;;5087287;28;20202;-71
2024/03/08 02:50:16;;;;;;;15.83;12.13;;;4.10;99.90;;;;;;5086772;28;20746;-72
2024/03/08 02:52:43;;;;;;;16.43;12.67;;;4.10;99.90;;;;;;5086877;28;20207;-72
2024/03/08 02:55:15;;;;;;;16.67;12.40;;;4.10;99.90;;;;;;5087232;28;20662;-72
2024/03/08 02:57:42;;;;;;;18.53;12.83;;;4.10;99.90;;;;;;5087280;28;20673;-72
2024/03/08 03:00:09;;;;;;;19.57;12.47;;;4.00;99.90;;;;;;5086009;28;20209;-72
2024/03/08 03:02:37;;;;;;;16.07;11.93;;;4.00;99.90;;;;;;5080149;28;20654;-73
2024/03/08 03:05:05;;;;;;;18.83;12.20;;;4.00;99.90;;;;;;5066833;28;20215;-72
2024/03/08 03:07:33;;;;;;;16.47;12.17;;;3.90;99.90;;;;;;5066879;28;20253;-73
2024/03/08 03:10:01;;;;;;;15.70;12.47;;;3.90;99.90;;;;;;5066745;28;20257;-73
2024/03/08 03:12:30;;;;;;;16.27;12.67;;;3.90;99.90;;;;;;5066055;28;20207;-72
2024/03/08 03:14:57;;;;;;;18.70;11.87;;;3.90;99.90;;;;;;5081158;28;20669;-72
2024/03/08 03:17:24;;;;;;;15.67;11.43;;;3.90;99.90;;;;;;5090759;28;20207;-74
2024/03/08 03:19:51;;;;;;;17.10;11.70;;;3.90;99.90;;;;;;5090816;28;20610;-72
2024/03/08 03:22:18;;;;;;;17.93;12.37;;;3.90;99.90;;;;;;5090850;28;20238;-72
2024/03/08 03:24:46;;;;;;;16.27;12.73;;;3.90;99.90;;;;;;5090685;28;20318;-73
2024/03/08 03:27:13;;;;;;;18.83;12.37;;;3.90;99.90;;;;;;5091009;28;20301;-72
2024/03/08 03:29:45;;;;;;;18.23;13.00;;;3.80;99.90;;;;;;5090583;28;20302;-72
2024/03/08 03:32:12;;;;;;;17.53;12.53;;;3.80;99.90;;;;;;5090836;28;20222;-70
2024/03/08 03:34:39;;;;;;;17.70;11.87;;;3.80;99.90;;;;;;5086359;28;20306;-71
2024/03/08 03:37:06;;;;;;;17.37;12.70;;;3.70;99.90;;;;;;5069695;28;20910;-72
2024/03/08 03:39:34;;;;;;;16.93;12.33;;;3.70;99.90;;;;;;5069893;28;20215;-72
2024/03/08 03:42:01;;;;;;;19.70;13.40;;;3.70;99.90;;;;;;5070425;28;20214;-72
2024/03/08 03:44:28;;;;;;;17.43;12.37;;;3.70;99.90;;;;;;5069650;28;20203;-73
2024/03/08 03:46:57;;;;;;;17.40;11.70;;;3.70;99.90;;;;;;5069933;28;20211;-72
2024/03/08 03:49:23;;;;;;;20.30;12.47;;;3.70;99.90;;;;;;5069628;28;20302;-73
2024/03/08 03:51:50;;;;;;;18.43;13.40;;;3.70;99.90;;;;;;5069857;28;20207;-73
2024/03/08 03:54:17;;;;;;;18.63;12.43;;;3.70;99.90;;;;;;5069958;28;20302;-73
2024/03/08 03:56:45;;;;;;;19.13;12.63;;;3.70;99.90;;;;;;5077175;28;20611;-73
2024/03/08 03:59:11;;;;;;;17.93;12.87;;;3.70;99.90;;;;;;5069999;28;20207;-72
2024/03/08 04:01:43;;;;;;;16.90;12.63;;;3.60;99.90;;;;;;5077640;28;20210;-71
2024/03/08 04:04:12;;;;;;;17.67;12.30;;;3.60;99.90;;;;;;5089942;28;20195;-72
2024/03/08 04:06:39;;;;;;;19.10;12.83;;;3.60;99.90;;;;;;5089772;28;20255;-72
2024/03/08 04:09:06;;;;;;;15.70;11.07;;;3.60;99.90;;;;;;5089940;28;20286;-72
2024/03/08 04:11:32;;;;;;;17.30;12.20;;;3.50;99.90;;;;;;5089013;28;20299;-72
2024/03/08 04:14:02;;;;;;;17.60;13.37;;;3.60;99.90;;;;;;5089750;28;20232;-72
2024/03/08 04:16:29;;;;;;;15.43;12.53;;;3.50;99.90;;;;;;5089787;28;20239;-72
2024/03/08 04:18:56;;;;;;;16.70;12.20;;;3.50;99.90;;;;;;5090119;28;20317;-72
2024/03/08 04:21:24;;;;;;;17.90;13.00;;;3.50;99.90;;;;;;5089411;28;20537;-72
2024/03/08 04:23:51;;;;;;;17.43;12.53;;;3.50;99.90;;;;;;5089392;28;20302;-72
2024/03/08 04:26:18;;;;;;;15.70;12.60;;;3.40;99.90;;;;;;5088969;28;20210;-72
2024/03/08 04:28:45;;;;;;;19.50;13.13;;;3.50;99.90;;;;;;5088996;28;20205;-72
2024/03/08 04:31:11;;;;;;;17.80;12.83;;;3.40;99.90;;;;;;5089540;28;20195;-72
2024/03/08 04:33:38;;;;;;;19.10;12.60;;;3.40;99.90;;;;;;5089215;28;20573;-71
2024/03/08 04:36:07;;;;;;;17.83;12.60;;;3.50;99.90;;;;;;5089448;28;20291;-71
2024/03/08 04:38:36;;;;;;;17.77;12.57;;;3.40;99.90;;;;;;5088755;28;20247;-71
2024/03/08 04:41:05;;;;;;;16.10;12.77;;;3.40;99.90;;;;;;5088846;28;20811;-71
2024/03/08 04:43:32;;;;;;;18.67;13.63;;;3.30;99.90;;;;;;5089027;28;20198;-73
2024/03/08 04:45:59;;;;;;;22.37;12.80;;;3.30;99.90;;;;;;5088984;28;20237;-72
2024/03/08 04:48:28;;;;;;;17.83;13.20;;;3.20;99.90;;;;;;5089233;28;20234;-72
2024/03/08 04:50:55;;;;;;;16.60;13.20;;;3.20;99.90;;;;;;5089262;28;20302;-72
2024/03/08 04:53:23;;;;;;;17.17;12.50;;;3.20;99.90;;;;;;5070117;28;20666;-72
2024/03/08 04:55:51;;;;;;;18.23;13.23;;;3.20;99.90;;;;;;5088827;28;20335;-71
2024/03/08 04:58:18;;;;;;;23.00;13.57;;;3.10;99.90;;;;;;5089100;28;20320;-71
2024/03/08 05:00:45;;;;;;;18.43;12.57;;;3.20;99.90;;;;;;5088654;28;20203;-71
2024/03/08 05:03:11;;;;;;;17.43;12.77;;;3.10;99.90;;;;;;5088613;28;20293;-72
2024/03/08 05:05:38;;;;;;;19.63;13.10;;;3.10;99.90;;;;;;5088467;28;20800;-71
2024/03/08 05:08:06;;;;;;;19.90;13.73;;;3.10;99.90;;;;;;5088517;28;20211;-72
2024/03/08 05:10:33;;;;;;;19.03;13.60;;;3.10;99.90;;;;;;5088157;28;20260;-72
2024/03/08 05:13:01;;;;;;;23.90;14.10;;;3.10;99.90;;;;;;5088324;28;20288;-72
2024/03/08 05:15:28;;;;;;;17.83;12.80;;;3.10;99.90;;;;;;5088109;28;20985;-70
2024/03/08 05:17:55;;;;;;;20.57;13.80;;;3.00;99.90;;;;;;5088401;28;20856;-71
2024/03/08 05:20:22;;;;;;;21.27;14.80;;;3.10;99.90;;;;;;5088550;28;20238;-71
2024/03/08 05:22:49;;;;;;;19.70;13.73;;;3.00;99.90;;;;;;5068439;28;20204;-71
2024/03/08 05:25:17;;;;;;;23.87;14.67;;;3.10;99.90;;;;;;5068307;28;20254;-71
2024/03/08 05:27:44;;;;;;;23.37;14.80;;;3.00;99.90;;;;;;5085692;28;20215;-71
2024/03/08 05:30:14;;;;;;;23.67;15.23;;;3.00;99.90;;;;;;5088115;28;20289;-72
2024/03/08 05:32:44;;;;;;;22.23;14.77;;;3.00;99.90;;;;;;5087960;28;20244;-71
2024/03/08 05:35:12;;;;;;;22.90;14.87;;;3.00;99.90;;;;;;5088367;28;20207;-72
2024/03/08 05:37:39;;;;;;;22.43;15.17;;;3.00;99.90;;;;;;5088104;28;20321;-72
2024/03/08 05:40:09;;;;;;;23.77;15.43;;;3.00;99.90;;;;;;5087905;28;20285;-71
2024/03/08 05:42:36;;;;;;;21.50;14.70;;;3.00;99.90;;;;;;5087835;28;20203;-71
2024/03/08 05:45:03;;;;;;;23.00;15.70;;;3.00;99.90;;;;;;5087663;28;20215;-71
2024/03/08 05:47:31;;;;;;;21.87;15.20;;;3.00;99.90;;;;;;5087315;28;20738;-71
2024/03/08 05:49:58;;;;;;;23.27;15.40;;;3.00;99.90;;;;;;5088078;28;20301;-72
2024/03/08 05:52:25;;;;;;;22.63;14.73;;;3.00;99.90;;;;;;5087848;28;20209;-72
2024/03/08 05:54:52;;;;;;;22.53;15.83;;;3.00;99.90;;;;;;5087789;28;20230;-72
2024/03/08 05:57:19;;;;;;;24.87;15.77;;;3.00;99.90;;;;;;5087402;28;20323;-73
2024/03/08 05:59:47;;;;;;;20.63;14.43;;;3.00;99.90;;;;;;5087627;28;20210;-71
2024/03/08 06:02:19;;;;;;;21.70;14.97;;;3.00;99.90;;;;;;5087579;28;20199;-70
2024/03/08 06:04:47;;;;;;;21.03;15.40;;;3.00;99.90;;;;;;5086639;28;20222;-71
2024/03/08 06:07:14;;;;;;;22.90;15.40;;;3.00;99.90;;;;;;5087287;28;20736;-71
2024/03/08 06:09:45;;;;;;;24.73;14.93;;;2.90;99.90;;;;;;5087017;28;20989;-71
2024/03/08 06:12:12;;;;;;;24.60;15.70;;;2.90;99.90;;;;;;5087348;28;20191;-71
2024/03/08 06:14:39;;;;;;;21.13;14.77;;;2.90;99.90;;;;;;5087648;28;20211;-72
2024/03/08 06:17:07;;;;;;;22.33;14.77;;;3.00;99.90;;;;;;5087068;28;20230;-71
2024/03/08 06:19:35;;;;;;;20.93;14.60;;;3.00;99.90;;;;;;5087352;28;20202;-71
2024/03/08 06:22:05;;;;;;;22.47;14.00;;;3.00;99.90;;;;;;5087123;28;20290;-72
2024/03/08 06:24:32;;;;;;;19.57;14.20;;;3.10;99.90;;;;;;5086793;28;20213;-72
2024/03/08 06:26:59;;;;;;;20.93;14.30;;;3.20;99.90;;;;;;5075694;28;20723;-72
2024/03/08 06:29:26;;;;;;;18.50;13.73;;;3.30;99.90;;;;;;5066881;28;20695;-72
2024/03/08 06:31:53;;;;;;;22.20;14.57;;;3.40;99.90;;;;;;5076219;28;20673;-72
2024/03/08 06:34:20;;;;;;;21.37;14.67;;;3.50;99.90;;;;;;5086991;28;20276;-72
2024/03/08 06:36:47;;;;;;;24.07;15.53;;;3.50;99.90;;;;;;5087116;28;20313;-72
2024/03/08 06:39:15;;;;;;;22.17;15.60;;;3.50;99.90;;;;;;5087243;28;20242;-72
2024/03/08 06:41:44;;;;;;;22.97;14.93;;;3.50;99.90;;;;;;5086428;28;20295;-72
2024/03/08 06:44:11;;;;;;;21.90;14.70;;;3.50;99.90;;;;;;5086653;28;20745;-71
2024/03/08 06:46:38;;;;;;;20.50;14.83;;;3.50;99.90;;;;;;5086721;28;20322;-71
2024/03/08 06:49:07;;;;;;;21.53;14.80;;;3.40;99.90;;;;;;5086886;28;20665;-71
2024/03/08 06:51:34;;;;;;;22.30;16.07;;;3.40;99.90;;;;;;5090600;28;20203;-71
2024/03/08 06:54:00;;;;;;;21.17;15.10;;;3.30;99.90;;;;;;5091088;28;20293;-72
2024/03/08 06:56:29;;;;;;;23.63;15.57;;;3.40;99.90;;;;;;5089950;28;20517;-72
2024/03/08 06:58:56;;;;;;;24.00;15.07;;;3.40;99.90;;;;;;5088390;28;20213;-72
2024/03/08 07:01:23;;;;;;;21.30;14.80;;;3.40;99.90;;;;;;5090484;28;20289;-72
2024/03/08 07:03:52;;;;;;;22.83;15.20;;;3.40;99.90;;;;;;5090531;28;20318;-72
2024/03/08 07:06:20;;;;;;;27.20;14.70;;;3.40;99.90;;;;;;5090024;28;20218;-70
2024/03/08 07:08:48;;;;;;;23.50;15.47;;;3.50;99.90;;;;;;5090839;28;20675;-71
2024/03/08 07:11:18;;;;;;;20.53;15.30;;;3.50;99.90;;;;;;5090293;28;20678;-71
2024/03/08 07:13:46;;;;;;;20.77;15.07;;;3.60;99.90;;;;;;5090551;28;20317;-71
2024/03/08 07:16:13;;;;;;;21.00;14.80;;;3.70;99.90;;;;;;5090326;28;20708;-71
2024/03/08 07:18:43;;;;;;;20.53;14.80;;;3.70;99.90;;;;;;5090716;28;20210;-71
2024/03/08 07:21:10;;;;;;;20.43;14.73;;;3.80;99.90;;;;;;5090840;28;20278;-71
2024/03/08 07:24:02;;;;;;;21.30;15.57;;;3.80;99.90;;;;;;5090168;28;20238;-71
2024/03/08 07:26:30;;;;;;;20.00;14.23;;;3.80;99.90;;;;;;5090247;28;20233;-71
2024/03/08 07:29:00;;;;;;;19.73;14.77;;;4.00;99.90;;;;;;5090530;28;20236;-72
2024/03/08 07:31:37;;;;;;;27.17;14.07;;;4.10;99.90;;;;;;5090880;28;20217;-72
2024/03/08 07:34:07;;;;;;;20.17;14.27;;;4.20;99.90;;;;;;5090698;28;20285;-72
2024/03/08 07:36:34;;;;;;;19.07;13.60;;;4.20;99.90;;;;;;5090566;28;20321;-72
2024/03/08 07:39:01;;;;;;;19.23;13.60;;;4.30;99.90;;;;;;5090339;28;20211;-73
2024/03/08 07:41:28;;;;;;;17.07;12.47;;;4.50;99.90;;;;;;5071858;28;20235;-73
2024/03/08 07:43:55;;;;;;;19.13;13.70;;;4.60;99.90;;;;;;5076340;28;20195;-71
2024/03/08 07:46:24;;;;;;;17.17;12.53;;;4.70;99.90;;;;;;5089878;28;20246;-71
2024/03/08 07:48:51;;;;;;;19.37;13.17;;;4.80;99.90;;;;;;5090287;28;20308;-72
2024/03/08 07:51:18;;;;;;;17.07;12.70;;;5.00;99.90;;;;;;5086297;28;20647;-72
2024/03/08 07:53:45;;;;;;;18.23;13.00;;;5.10;99.90;;;;;;5084765;28;20569;-73
2024/03/08 07:56:13;;;;;;;19.53;12.63;;;5.20;99.90;;;;;;5082228;28;20434;-72
2024/03/08 07:58:41;;;;;;;15.67;12.20;;;5.30;99.90;;;;;;5071829;28;20214;-73
2024/03/08 08:01:08;;;;;;;18.40;13.37;;;5.40;99.90;;;;;;5089205;28;20199;-72
2024/03/08 08:03:37;;;;;;;19.87;13.30;;;5.50;99.90;;;;;;5088915;28;20564;-73
2024/03/08 08:06:05;;;;;;;17.00;12.63;;;5.60;99.90;;;;;;5088722;28;20223;-74
2024/03/08 08:08:32;;;;;;;16.87;12.90;;;5.60;99.90;;;;;;5089143;28;20210;-73
2024/03/08 08:10:59;;;;;;;18.07;13.37;;;5.70;99.90;;;;;;5089546;28;20214;-74
2024/03/08 08:13:27;;;;;;;17.40;13.43;;;5.80;99.90;;;;;;5088813;28;20740;-73
2024/03/08 08:15:54;;;;;;;16.60;12.80;;;5.90;99.90;;;;;;5089452;28;20206;-72
2024/03/08 08:18:24;;;;;;;17.77;13.83;;;5.90;99.90;;;;;;5089050;28;20314;-73
2024/03/08 08:20:53;;;;;;;23.17;14.43;;;5.90;99.90;;;;;;5088045;28;20613;-73
2024/03/08 08:23:20;;;;;;;18.43;13.80;;;6.00;99.90;;;;;;5089326;28;20210;-72
2024/03/08 08:25:49;;;;;;;18.40;13.60;;;6.10;99.90;;;;;;5088915;28;20213;-73
2024/03/08 08:28:17;;;;;;;20.73;13.43;;;6.20;99.90;;;;;;5088973;28;20214;-72
2024/03/08 08:30:44;;;;;;;17.10;13.73;;;6.20;99.90;;;;;;5072622;28;20211;-72
2024/03/08 08:33:11;;;;;;;19.23;12.77;;;6.30;99.90;;;;;;5081146;28;20286;-72
2024/03/08 08:35:38;;;;;;;15.30;12.43;;;6.40;99.90;;;;;;5087161;28;20321;-72
2024/03/08 08:38:07;;;;;;;17.30;12.37;;;6.40;99.90;;;;;;5088822;28;20669;-71
2024/03/08 08:40:35;;;;;;;15.83;12.27;;;6.50;99.90;;;;;;5087892;28;20207;-72
2024/03/08 08:43:04;;;;;;;16.93;12.20;;;6.60;99.90;;;;;;5088607;28;20210;-72
2024/03/08 08:45:31;;;;;;;15.50;11.80;;;6.70;99.90;;;;;;5088138;28;20230;-72
2024/03/08 08:47:59;;;;;;;14.40;11.53;;;6.70;99.90;;;;;;5088572;28;20290;-71
2024/03/08 08:50:28;;;;;;;13.80;10.73;;;6.80;99.90;;;;;;5088018;28;20198;-71
2024/03/08 08:52:56;;;;;;;15.30;11.57;;;6.90;99.90;;;;;;5086563;28;20304;-73
2024/03/08 08:55:25;;;;;;;15.97;11.60;;;7.00;99.90;;;;;;5088193;28;20230;-72
2024/03/08 08:57:52;;;;;;;13.70;10.60;;;7.00;99.90;;;;;;5087935;28;20234;-73
2024/03/08 09:00:20;;;;;;;14.97;11.23;;;7.10;99.90;;;;;;5086092;28;20672;-74
2024/03/08 09:02:48;;;;;;;13.83;11.10;;;7.20;99.90;;;;;;5086623;28;20942;-73
2024/03/08 09:05:16;;;;;;;16.03;12.17;;;7.20;99.90;;;;;;5085852;28;20230;-73
2024/03/08 09:07:45;;;;;;;15.13;10.97;;;7.30;99.90;;;;;;5086356;28;20207;-73
2024/03/08 09:10:14;;;;;;;16.50;12.63;;;7.40;99.90;;;;;;5086141;28;20835;-73
2024/03/08 09:12:42;;;;;;;15.53;12.10;;;7.40;99.90;;;;;;5085324;28;20235;-72
2024/03/08 09:15:10;;;;;;;18.33;12.17;;;7.50;99.90;;;;;;5085457;28;20202;-73
2024/03/08 09:17:39;;;;;;;15.67;12.23;;;7.60;99.90;;;;;;5085702;28;20330;-72
2024/03/08 09:20:08;;;;;;;19.00;13.23;;;7.60;99.90;;;;;;5086045;28;20218;-72
2024/03/08 09:22:35;;;;;;;17.13;13.20;;;7.60;99.90;;;;;;5085695;28;20665;-73
2024/03/08 09:25:03;;;;;;;16.67;12.67;;;7.80;99.90;;;;;;5085706;28;20293;-73
2024/03/08 09:27:29;;;;;;;18.03;13.60;;;7.90;99.90;;;;;;5085815;28;20926;-73
2024/03/08 09:29:58;;;;;;;17.57;14.07;;;7.90;99.90;;;;;;5085629;28;20828;-73
2024/03/08 09:32:25;;;;;;;18.03;13.53;;;8.00;99.90;;;;;;5085619;28;20301;-72
2024/03/08 09:34:52;;;;;;;18.43;13.07;;;8.10;99.90;;;;;;5085763;28;20981;-72
2024/03/08 09:37:19;;;;;;;18.33;13.80;;;8.10;99.90;;;;;;5085853;28;20325;-72
2024/03/08 09:39:46;;;;;;;17.17;13.37;;;8.20;99.90;;;;;;5086006;28;20207;-72
2024/03/08 09:42:14;;;;;;;19.30;14.57;;;8.20;99.90;;;;;;5086178;28;20289;-72
2024/03/08 09:44:44;;;;;;;18.07;14.20;;;8.30;99.90;;;;;;5085198;28;20661;-73
2024/03/08 09:47:14;;;;;;;15.93;13.10;;;8.30;99.90;;;;;;5085467;28;20290;-72
2024/03/08 09:49:43;;;;;;;16.07;12.97;;;8.50;99.90;;;;;;5084679;28;20210;-73
2024/03/08 09:52:12;;;;;;;20.30;13.73;;;8.60;99.90;;;;;;5085180;28;20215;-73
2024/03/08 09:54:39;;;;;;;16.93;13.00;;;8.60;99.90;;;;;;5085070;28;20298;-73
2024/03/08 09:57:09;;;;;;;16.57;12.97;;;8.70;99.90;;;;;;5085084;28;20237;-74
2024/03/08 09:59:46;;;;;;;15.37;12.43;;;8.70;99.90;;;;;;5084809;28;20207;-73
2024/03/08 10:02:16;;;;;;;15.67;13.43;;;8.80;99.90;;;;;;5075048;28;20975;-73
2024/03/08 10:04:46;;;;;;;18.53;13.57;;;8.90;99.90;;;;;;5085315;28;20222;-74
2024/03/08 10:07:13;;;;;;;16.30;13.47;;;9.00;99.90;;;;;;5085399;28;20202;-73
2024/03/08 10:09:41;;;;;;;17.87;13.53;;;9.10;99.90;;;;;;5083284;28;20210;-73
2024/03/08 10:12:11;;;;;;;19.70;13.17;;;9.00;99.90;;;;;;5084443;28;20199;-73
2024/03/08 10:14:42;;;;;;;17.30;12.80;;;9.10;99.90;;;;;;5073543;28;20219;-73
2024/03/08 10:17:08;;;;;;;15.03;12.07;;;9.20;99.90;;;;;;5064555;28;20272;-73
2024/03/08 10:19:37;;;;;;;16.80;12.17;;;9.20;99.90;;;;;;5064798;28;20306;-73
2024/03/08 10:22:04;;;;;;;14.67;11.33;;;9.30;99.90;;;;;;5064739;28;20283;-74
2024/03/08 10:24:33;;;;;;;19.10;11.23;;;9.40;99.90;;;;;;5063609;28;20302;-74
2024/03/08 10:27:04;;;;;;;13.93;11.43;;;9.50;99.90;;;;;;5075999;28;20202;-73
2024/03/08 10:29:32;;;;;;;13.37;11.97;;;9.60;99.20;;;;;;5084823;28;20228;-73
2024/03/08 10:31:58;;;;;;;15.70;11.27;;;9.60;98.90;;;;;;5084314;28;20290;-72
2024/03/08 10:34:25;;;;;;;12.67;11.30;;;9.80;99.30;;;;;;5081523;28;20282;-72
2024/03/08 10:36:56;;;;;;;13.33;10.60;;;9.90;99.30;;;;;;5083884;28;20373;-73
2024/03/08 10:39:25;;;;;;;16.03;10.67;;;10.00;99.30;;;;;;5083229;28;20716;-72
2024/03/08 10:41:57;;;;;;;13.73;10.63;;;10.20;98.70;;;;;;5083400;28;20230;-72
2024/03/08 10:44:54;;;;;;;14.93;10.67;;;10.20;98.10;;;;;;5083616;28;20701;-72
2024/03/08 10:47:29;;;;;;;11.50;10.10;;;10.30;98.10;;;;;;5084029;28;20282;-72
2024/03/08 10:50:09;;;;;;;12.33;10.07;;;10.30;97.40;;;;;;5084430;28;20198;-73
2024/03/08 10:52:37;;;;;;;11.97;10.13;;;10.40;97.10;;;;;;5084475;28;20234;-72
2024/03/08 10:55:12;;;;;;;11.23;9.93;;;10.40;97.00;;;;;;5084286;28;20229;-72
2024/03/08 10:57:40;;;;;;;14.37;10.27;;;10.50;96.40;;;;;;5084335;28;20297;-72
2024/03/08 11:00:10;;;;;;;15.30;9.53;;;10.50;96.40;;;;;;5085211;28;20218;-72
2024/03/08 11:02:38;;;;;;;10.80;9.47;;;10.50;96.00;;;;;;5085097;28;20199;-72
2024/03/08 11:05:05;;;;;;;12.10;9.30;;;10.60;95.80;;;;;;5084599;28;20249;-72
2024/03/08 11:07:35;;;;;;;9.47;8.53;;;10.60;95.10;;;;;;5084265;28;20198;-72
2024/03/08 11:10:05;;;;;;;13.47;9.33;;;10.70;95.60;;;;;;5084619;28;20256;-72
2024/03/08 11:12:38;;;;;;;12.47;10.93;;;10.80;96.10;;;;;;5083826;28;20210;-73
2024/03/08 11:15:12;;;;;;;14.80;12.30;;;11.10;96.90;;;;;;5084360;28;20859;-73
2024/03/08 11:17:46;;;;;;;16.33;12.17;;;11.20;96.80;;;;;;5084405;28;20284;-73
2024/03/08 11:20:17;;;;;;;14.47;12.63;;;11.30;97.50;;;;;;5073069;28;20199;-72
2024/03/08 11:22:54;;;;;;;13.63;12.23;;;11.50;97.80;;;;;;5063892;28;20788;-72
2024/03/08 11:25:41;;;;;;;17.60;12.50;;;11.60;97.80;;;;;;5063728;28;20196;-72
2024/03/08 11:28:17;;;;;;;14.70;12.30;;;11.70;97.20;;;;;;5064202;28;20261;-72
2024/03/08 11:30:46;;;;;;;15.30;11.80;;;11.90;96.90;;;;;;5083814;28;20291;-72
2024/03/08 11:33:14;;;;;;;14.00;12.23;;;12.00;97.00;;;;;;5084536;28;20207;-72
2024/03/08 11:35:45;;;;;;;33.77;13.43;;;12.20;97.30;;;;;;5084292;28;20210;-72
2024/03/08 11:38:14;;;;;;;13.50;12.07;;;12.20;96.40;;;;;;5088170;28;20312;-72
2024/03/08 11:40:42;;;;;;;14.37;11.17;;;12.30;96.50;;;;;;5087808;28;20207;-72
2024/03/08 11:43:10;;;;;;;15.23;11.70;;;12.30;96.00;;;;;;5088508;28;20198;-72
2024/03/08 11:45:38;;;;;;;12.47;11.00;;;12.30;95.70;;;;;;5087763;28;20207;-73
2024/03/08 11:48:05;;;;;;;14.20;11.23;;;12.30;95.40;;;;;;5088284;28;20245;-73
2024/03/08 11:50:33;;;;;;;13.37;10.80;;;12.40;94.90;;;;;;5087558;28;20334;-73
2024/03/08 11:53:04;;;;;;;22.50;11.67;;;12.50;94.80;;;;;;5080390;28;20206;-73
2024/03/08 11:55:35;;;;;;;13.63;11.00;;;12.50;94.40;;;;;;5067120;28;20571;-72
2024/03/08 11:58:07;;;;;;;11.77;10.57;;;12.60;94.50;;;;;;5086786;28;20234;-73
2024/03/08 12:00:38;;;;;;;13.77;11.00;;;12.70;94.00;;;;;;5088045;28;20187;-73
2024/03/08 12:03:07;;;;;;;12.37;10.57;;;12.80;94.10;;;;;;5087790;28;20195;-73
2024/03/08 12:05:34;;;;;;;14.57;10.13;;;12.80;93.70;;;;;;5087623;28;20314;-72
2024/03/08 12:08:01;;;;;;;14.90;11.23;;;12.90;93.50;;;;;;5084263;28;20209;-72
2024/03/08 12:10:28;;;;;;;11.97;10.77;;;12.90;93.30;;;;;;5086422;28;20206;-72
2024/03/08 12:12:59;;;;;;;12.63;10.97;;;13.10;93.20;;;;;;5089567;28;20314;-72
2024/03/08 12:15:29;;;;;;;12.67;10.70;;;13.20;93.30;;;;;;5089174;28;20201;-72
2024/03/08 12:17:57;;;;;;;14.23;11.43;;;13.40;93.60;;;;;;5089577;28;20211;-71
2024/03/08 12:20:25;;;;;;;15.27;11.77;;;13.40;92.40;;;;;;5089187;28;21052;-72
2024/03/08 12:22:56;;;;;;;14.20;11.33;;;13.40;92.70;;;;;;5089499;28;20211;-72
2024/03/08 12:25:23;;;;;;;12.37;11.00;;;13.50;92.20;;;;;;5089021;28;20285;-72
2024/03/08 12:27:52;;;;;;;12.70;11.10;;;13.50;92.20;;;;;;5089022;28;20199;-72
2024/03/08 12:30:21;;;;;;;13.13;11.50;;;13.60;92.90;;;;;;5088899;28;20662;-73
2024/03/08 12:32:56;;;;;;;11.87;10.33;;;13.80;92.80;;;;;;5089197;28;20588;-73
2024/03/08 12:35:24;;;;;;;12.47;10.40;;;13.80;91.80;;;;;;5089157;28;20199;-73
2024/03/08 12:37:53;;;;;;;14.23;9.80;;;13.80;90.20;;;;;;5088484;28;20298;-73
2024/03/08 12:40:26;;;;;;;12.07;9.57;;;13.80;89.60;;;;;;5088328;28;20725;-74
2024/03/08 12:42:53;;;;;;;14.00;10.57;;;13.90;88.60;;;;;;5089074;28;20187;-74